EDDE

Erfurt Airport

Erfurt, Germany
METAR EDDE 181550Z 19002KT 9999 BKN028 01/M02 Q1025 NOSIG
Observed Flight Rules
Dec-18 @ 15:50 UTC (44 minutes ago) Marginal Visual Flight Rules
Wind Visibility Clouds
190° at 2 knots 10,000+ meters
  • Broken at 2,800' AGL
Temperatures Readings
Current 1°C / 34°F
Dewpoint -2°C / 28°F
Humidity 81%
Altimeter 30.27" Hg
Pressure 1025 hPa
Elevation 323
METAR EDDE 181550Z 19002KT 9999 BKN028 01/M02 Q1025 NOSIG
Observed Flight Rules
Dec-18 @ 15:50 UTC
(44 minutes ago)
MVFR
Wind Visibility
190° at 2 knots 10,000+ meters
Clouds
  • Broken at 2,800' AGL
Temperature Dewpoint
1°C / 34°F -2°C / 28°F
Humidity Altimeter Pressure
81% 30.27" Hg 1025 hPa